PORT of AGIOS KIRYKOS

ประเทศ: Greece ประเทศ: Greece [GR]
แลตติจูด/ลองกิจูด: 37.615095° / 26.297° แสดงบนแผนที่
เวลาท้องถิ่น:  [UTC +3]
UN/LOCODE: GRAKI

เวลาถึง/ออกเดินทางล่าสุด


ชื่อเรือ
เวลาถึง (UTC)
เวลาถึง (LT)
ออกเดินทาง (UTC)
ออกเดินทาง (LT)
Vessel Type: เรือโดยสาร  EUROPEAN EXPRESS 2014-08-23 01:18:00 2014-08-23 04:18:00 2014-08-23 01:56:00 2014-08-23 04:56:00
Vessel Type: เรือสินค้า  AGIA MARINA 2014-08-22 18:44:00 2014-08-22 21:44:00 2014-08-22 19:33:00 2014-08-22 22:33:00
Vessel Type: เรือโดยสาร  PANAGIA THEOTOKOS 2014-08-22 05:13:00 2014-08-22 08:13:00 2014-08-22 06:04:00 2014-08-22 09:04:00
Vessel Type: เรือโดยสาร  PANAGIA THEOTOKOS 2014-08-21 13:43:00 2014-08-21 16:43:00 2014-08-22 04:03:00 2014-08-22 07:03:00
Vessel Type: เรือโดยสาร  MYTILENE 2014-08-21 17:44:00 2014-08-21 20:44:00 2014-08-21 18:12:00 2014-08-21 21:12:00
Vessel Type: เรือโดยสาร  EUROPEAN EXPRESS 2014-08-21 17:17:00 2014-08-21 20:17:00 2014-08-21 17:48:00 2014-08-21 20:48:00
PANAGIA THEOTOKOS 2014-08-20 13:59:00 2014-08-20 16:59:00 2014-08-21 05:34:00 2014-08-21 08:34:00
EUROPEAN EXPRESS 2014-08-21 00:32:00 2014-08-21 03:32:00 2014-08-21 01:12:00 2014-08-21 04:12:00
PANAGIA THEOTOKOS 2014-08-20 13:59:00 2014-08-20 16:59:00 2014-08-20 15:41:00 2014-08-20 18:41:00
ZEFYROS 2014-08-20 06:46:00 2014-08-20 09:46:00 2014-08-20 11:49:00 2014-08-20 14:49:00

เวลาถึงที่คาดหมาย


ชื่อเรือ
Scheduled Arrival (UTC)
เวลาถึงที่วางไว้ (เวลาท้องถิ่น)
เวลาถึงโดยประมาณ (UTC)
เวลาถึงโดยประมาณ (เวลาท้องถิ่น)
ไม่พบรายการ

Wind Forecast


    
เวลา (UTC)
ความเร็ว
Direction
Temperature
2014-08-23 06:00:00 8 knots 347° 25°C
2014-08-23 09:00:00 9 knots 324° 27°C
2014-08-23 12:00:00 13 knots 311° 28°C
2014-08-23 15:00:00 13 knots 316° 28°C
2014-08-23 18:00:00 12 knots 323° 26°C
2014-08-23 21:00:00 11 knots 324° 25°C
2014-08-24 00:00:00 12 knots 323° 25°C
2014-08-24 03:00:00 12 knots 329° 25°C
2014-08-24 06:00:00 9 knots 337° 25°C
2014-08-24 09:00:00 11 knots 322° 27°C
2014-08-24 12:00:00 14 knots 310° 28°C
2014-08-24 15:00:00 14 knots 312° 27°C
2014-08-24 18:00:00 12 knots 301° 26°C
2014-08-24 21:00:00 10 knots 296° 25°C
2014-08-25 00:00:00 7 knots 323° 25°C
2014-08-25 03:00:00 6 knots 353° 25°C
2014-08-25 06:00:00 7 knots 353° 25°C